Time,TemperatureF,DewpointF,PressureIn,WindDirection,WindDirectionDegrees,WindSpeedMPH,WindSpeedGustMPH,Humidity,HourlyPrecipIn,Conditions,Clouds,dailyrainin,SolarRadiationWatts/m^2,SoftwareType,DateUTC
2013-01-26 00:00:00,36.0,-99.9,-100.00,SE,135,3.0,7.0,-999,-99.99,,,-99.99,0.000000,,2013-01-26 07:00:00,
2013-01-26 00:52:00,36.0,-99.9,-100.00,SE,135,3.0,7.0,-999,-99.99,,,-99.99,0.000000,,2013-01-26 07:52:00,
2013-01-26 01:00:00,36.0,-99.9,-100.00,SE,135,4.0,11.0,-999,-99.99,,,-99.99,0.000000,,2013-01-26 08:00:00,
2013-01-26 01:54:00,36.0,-99.9,-100.00,SE,135,4.0,11.0,-999,-99.99,,,-99.99,0.000000,,2013-01-26 08:54:00,
2013-01-26 02:00:00,36.0,-99.9,-100.00,ESE,123,3.0,7.0,-999,-99.99,,,-99.99,0.000000,,2013-01-26 09:00:00,
2013-01-26 02:52:00,36.0,-99.9,-100.00,ESE,123,3.0,7.0,-999,-99.99,,,-99.99,0.000000,,2013-01-26 09:52:00,
2013-01-26 03:00:00,36.0,-99.9,-100.00,SE,129,5.0,10.0,-999,-99.99,,,-99.99,0.000000,,2013-01-26 10:00:00,
2013-01-26 03:52:00,36.0,-99.9,-100.00,SE,129,5.0,10.0,-999,-99.99,,,-99.99,0.000000,,2013-01-26 10:52:00,
2013-01-26 04:00:00,36.0,-99.9,-100.00,SSE,147,6.0,10.0,-999,-99.99,,,-99.99,0.000000,,2013-01-26 11:00:00,
2013-01-26 04:53:00,36.0,-99.9,-100.00,SSE,147,6.0,10.0,-999,-99.99,,,-99.99,0.000000,,2013-01-26 11:53:00,
2013-01-26 05:00:00,36.0,-99.9,-100.00,SSE,148,6.0,14.0,-999,-99.99,,,-99.99,0.000000,,2013-01-26 12:00:00,
2013-01-26 05:53:00,36.0,-99.9,-100.00,SSE,148,6.0,14.0,-999,-99.99,,,-99.99,0.000000,,2013-01-26 12:53:00,
2013-01-26 06:00:00,35.0,-99.9,-100.00,SE,135,3.0,9.0,-999,-99.99,,,-99.99,0.000000,,2013-01-26 13:00:00,
2013-01-26 06:53:00,35.0,-99.9,-100.00,SE,135,3.0,9.0,-999,-99.99,,,-99.99,0.000000,,2013-01-26 13:53:00,
2013-01-26 07:00:00,36.0,-99.9,-100.00,ESE,120,3.0,7.0,-999,-99.99,,,-99.99,0.000000,,2013-01-26 14:00:00,
2013-01-26 07:53:00,36.0,-99.9,-100.00,ESE,120,3.0,7.0,-999,-99.99,,,-99.99,0.000000,,2013-01-26 14:53:00,
2013-01-26 08:00:00,36.0,-99.9,-100.00,SE,142,3.0,8.0,-999,-99.99,,,-99.99,0.000000,,2013-01-26 15:00:00,
2013-01-26 08:53:00,36.0,-99.9,-100.00,SE,142,3.0,8.0,-999,-99.99,,,-99.99,0.000000,,2013-01-26 15:53:00,
2013-01-26 09:00:00,36.0,-99.9,-100.00,SE,134,4.0,7.0,-999,-99.99,,,-99.99,0.600000,,2013-01-26 16:00:00,
2013-01-26 09:53:00,36.0,-99.9,-100.00,SE,134,4.0,7.0,-999,-99.99,,,-99.99,0.600000,,2013-01-26 16:53:00,
2013-01-26 10:00:00,38.0,-99.9,-100.00,ESE,119,3.0,9.0,-999,-99.99,,,-99.99,1.600000,,2013-01-26 17:00:00,
2013-01-26 10:53:00,38.0,-99.9,-100.00,ESE,119,3.0,9.0,-999,-99.99,,,-99.99,1.600000,,2013-01-26 17:53:00,
2013-01-26 11:00:00,38.0,-99.9,-100.00,SSE,168,2.0,6.0,-999,-99.99,,,-99.99,2.400000,,2013-01-26 18:00:00,
2013-01-26 11:53:00,38.0,-99.9,-100.00,SSE,168,2.0,6.0,-999,-99.99,,,-99.99,2.400000,,2013-01-26 18:53:00,
2013-01-26 12:00:00,40.0,-99.9,-100.00,SSE,156,3.0,7.0,-999,-99.99,,,-99.99,2.600000,,2013-01-26 19:00:00,
2013-01-26 12:53:00,40.0,-99.9,-100.00,SSE,156,3.0,7.0,-999,-99.99,,,-99.99,2.600000,,2013-01-26 19:53:00,
2013-01-26 13:00:00,40.0,-99.9,-100.00,SSE,163,4.0,11.0,-999,-99.99,,,-99.99,3.200000,,2013-01-26 20:00:00,
2013-01-26 13:52:00,40.0,-99.9,-100.00,SSE,163,4.0,11.0,-999,-99.99,,,-99.99,3.200000,,2013-01-26 20:52:00,
2013-01-26 14:00:00,35.0,-99.9,-100.00,SW,235,7.0,13.0,-999,-99.99,,,-99.99,3.200000,,2013-01-26 21:00:00,
2013-01-26 14:52:00,35.0,-99.9,-100.00,SW,235,7.0,13.0,-999,-99.99,,,-99.99,3.200000,,2013-01-26 21:52:00,
2013-01-26 15:00:00,35.0,-99.9,-100.00,WNW,289,5.0,13.0,-999,-99.99,,,-99.99,4.200000,,2013-01-26 22:00:00,
2013-01-26 15:52:00,35.0,-99.9,-100.00,WNW,289,5.0,13.0,-999,-99.99,,,-99.99,4.200000,,2013-01-26 22:52:00,
2013-01-26 16:00:00,35.0,-99.9,-100.00,NNW,339,8.0,12.0,-999,-99.99,,,-99.99,3.000000,,2013-01-26 23:00:00,
2013-01-26 16:52:00,35.0,-99.9,-100.00,NNW,339,8.0,12.0,-999,-99.99,,,-99.99,3.000000,,2013-01-26 23:52:00,
2013-01-26 17:00:00,33.0,-99.9,-100.00,NNW,339,5.0,8.0,-999,-99.99,,,-99.99,1.300000,,2013-01-27 00:00:00,
2013-01-26 17:52:00,33.0,-99.9,-100.00,NNW,339,5.0,8.0,-999,-99.99,,,-99.99,1.300000,,2013-01-27 00:52:00,
2013-01-26 18:00:00,32.0,-99.9,-100.00,North,4,2.0,5.0,-999,-99.99,,,-99.99,0.200000,,2013-01-27 01:00:00,
2013-01-26 18:52:00,32.0,-99.9,-100.00,North,4,2.0,5.0,-999,-99.99,,,-99.99,0.200000,,2013-01-27 01:52:00,
2013-01-26 19:00:00,31.0,-99.9,-100.00,NNW,331,5.0,7.0,-999,-99.99,,,-99.99,0.000000,,2013-01-27 02:00:00,
2013-01-26 19:52:00,31.0,-99.9,-100.00,NNW,331,5.0,7.0,-999,-99.99,,,-99.99,0.000000,,2013-01-27 02:52:00,
2013-01-26 20:00:00,30.0,-99.9,-100.00,NNW,343,6.0,9.0,-999,-99.99,,,-99.99,0.000000,,2013-01-27 03:00:00,
2013-01-26 20:52:00,30.0,-99.9,-100.00,NNW,343,6.0,9.0,-999,-99.99,,,-99.99,0.000000,,2013-01-27 03:52:00,
2013-01-26 21:00:00,29.0,-99.9,-100.00,North,355,6.0,10.0,-999,-99.99,,,-99.99,0.000000,,2013-01-27 04:00:00,
2013-01-26 21:52:00,29.0,-99.9,-100.00,North,355,6.0,10.0,-999,-99.99,,,-99.99,0.000000,,2013-01-27 04:52:00,
2013-01-26 22:00:00,30.0,-99.9,-100.00,NW,322,5.0,9.0,-999,-99.99,,,-99.99,0.000000,,2013-01-27 05:00:00,
2013-01-26 22:52:00,30.0,-99.9,-100.00,NW,322,5.0,9.0,-999,-99.99,,,-99.99,0.000000,,2013-01-27 05:52:00,
2013-01-26 23:00:00,30.0,-99.9,-100.00,NW,318,4.0,7.0,-999,-99.99,,,-99.99,0.000000,,2013-01-27 06:00:00,
2013-01-26 23:52:00,30.0,-99.9,-100.00,NW,318,4.0,7.0,-999,-99.99,,,-99.99,0.000000,,2013-01-27 06:52:00,